Latest Weather Observations for Hogan Island

IDT60801

Issued at 9:31 pm EDT Friday 19 December 2014 (issued every 30 minutes, with the page automatically refreshed every 10 minutes)

About weather observations | Map of weather stations | Latest weather observations for TAS | Other Formats
Station Details ID: 200838 Name: HOGAN ISLAND Lat: -39.22 Lon: 146.98 Height: 116.0 m
Data from the previous 72 hours. | See also: Recent months at Hogan Island
Date/Time
EDT
Temp
°C
App
Temp
°C
Dew
Point
Rel
Hum
%
Delta-T
°C
Wind Press
QNH
hPa
Press
MSL
hPa
Rain
since 9 am
mm
Dir
 
Spd
km/h
Gust
km/h
Spd
kts
Gust
kts
19/09:30pm 13.5 4.7 7.9 69 2.8 WSW 44 52 24 28 1017.7 - 0.0
19/09:00pm 13.7 5.0 8.3 70 2.7 WSW 44 50 24 27 1017.7 - 0.0
19/08:30pm 13.6 5.4 8.4 71 2.6 W 41 46 22 25 1017.5 - 0.0
19/08:00pm 14.0 5.2 8.2 68 2.9 W 44 50 24 27 1017.4 - 0.0
19/07:30pm 14.4 5.2 8.1 66 3.2 W 46 54 25 29 1017.0 - 0.0
19/07:00pm 15.2 5.7 8.2 63 3.5 W 48 57 26 31 1016.8 - 0.0
19/06:30pm 15.5 6.0 8.3 62 3.7 W 48 57 26 31 1016.4 - 0.0
19/06:00pm 15.0 4.9 7.5 61 3.7 W 50 57 27 31 1016.1 1015.9 0.0
19/05:30pm 16.0 6.5 8.2 60 4.0 WSW 48 54 26 29 1016.0 - 0.0
19/05:00pm 15.9 5.9 7.9 59 4.0 W 50 57 27 31 1015.9 - 0.0
19/04:30pm 16.5 7.3 8.2 58 4.2 W 46 54 25 29 1016.0 - 0.0
19/04:00pm 16.8 7.5 9.0 60 4.1 WSW 48 56 26 30 1016.0 - 0.0
19/03:30pm 16.8 7.1 7.4 54 4.7 WSW 48 57 26 31 1015.9 - 0.0
19/03:00pm 16.9 7.2 7.3 53 4.8 WSW 48 57 26 31 1015.8 1015.6 0.0
19/02:30pm 16.4 7.2 6.5 52 4.9 WSW 44 54 24 29 1015.7 - 0.0
19/02:00pm 16.0 7.3 8.5 61 3.8 WSW 44 54 24 29 1015.8 - 0.0
19/01:30pm 16.3 7.5 7.3 55 4.5 WSW 43 50 23 27 1015.6 - 0.0
19/01:00pm 17.4 8.7 7.7 53 4.9 WSW 43 46 23 25 1015.7 - 0.0
19/12:30pm 17.5 10.1 8.4 55 4.7 WSW 37 44 20 24 1015.6 - 0.0
19/12:00pm 16.8 8.9 8.0 56 4.5 WSW 39 44 21 24 1015.4 1015.2 0.0
19/11:30am 17.0 9.3 8.7 58 4.3 WSW 39 48 21 26 1015.2 - 0.0
19/11:00am 16.8 9.4 8.5 58 4.3 SW 37 43 20 23 1014.8 - 0.0
19/10:30am 15.9 8.0 7.7 58 4.1 SW 39 46 21 25 1014.7 - 0.0
19/10:00am 15.8 7.9 7.8 59 4.0 SW 39 50 21 27 1014.4 - 0.0
19/09:30am 14.2 6.2 7.5 64 3.3 SW 39 46 21 25 1014.3 - 0.0
19/09:00am 14.9 6.6 7.9 63 3.5 SW 41 48 22 26 1014.1 1013.9 0.0
19/08:30am 13.4 4.7 8.5 72 2.5 WSW 44 56 24 30 1013.6 - 0.0
19/08:00am 13.8 5.9 7.8 67 3.0 WSW 39 48 21 26 1013.5 - 0.0
19/07:30am 13.7 4.0 7.7 67 3.0 WSW 48 57 26 31 1012.9 - 0.0
19/07:00am 12.2 3.6 8.1 76 2.0 WSW 43 50 23 27 1012.6 - 0.0
19/06:30am 12.0 1.5 7.5 74 2.2 SW 52 61 28 33 1012.4 - 0.0
19/06:00am 12.6 3.2 7.3 70 2.6 WSW 46 54 25 29 1011.8 1011.6 0.0
19/05:30am 11.9 2.0 8.2 78 1.8 WSW 50 56 27 30 1011.6 - 0.0
19/05:14am 13.2 4.0 8.1 71 2.5 SW 46 69 25 37 1011.3 - 0.0
19/05:00am 13.3 4.0 7.5 68 2.9 WSW 46 54 25 29 1011.2 - 0.0
19/04:30am 13.2 3.9 7.4 68 2.8 WSW 46 57 25 31 1010.9 - 0.0
19/04:00am 13.1 3.3 6.9 66 3.0 WSW 48 57 26 31 1010.6 - 0.0
19/03:30am 12.9 4.1 8.0 72 2.4 WSW 44 52 24 28 1010.5 - 0.0
19/03:00am 13.0 3.1 6.8 66 3.0 WSW 48 54 26 29 1010.3 1010.2 0.0
19/02:30am 12.9 4.1 8.2 73 2.3 WSW 44 54 24 29 1010.3 - 0.0
19/02:00am 13.4 3.5 8.3 71 2.6 WSW 50 59 27 32 1010.2 - 0.0
19/01:30am 13.8 3.6 8.6 71 2.6 WSW 52 61 28 33 1010.1 - 0.0
19/01:00am 13.6 3.4 8.7 72 2.5 WSW 52 61 28 33 1010.0 - 0.0
19/12:30am 13.7 4.2 8.3 70 2.7 WSW 48 57 26 31 1010.1 - 0.0
19/12:00am 13.8 4.0 8.8 72 2.5 WSW 50 56 27 30 1010.1 1009.9 0.0
 
Date/Time
EDT
Temp
°C
App
Temp
°C
Dew
Point
Rel
Hum
%
Delta-T
°C
Wind Press
QNH
hPa
Press
MSL
hPa
Rain
since 9 am
mm
Dir
 
Spd
km/h
Gust
km/h
Spd
kts
Gust
kts
18/11:30pm 14.0 3.6 9.2 73 2.5 WSW 54 63 29 34 1009.9 - 0.0
18/11:00pm 13.8 3.5 9.6 76 2.2 WSW 54 65 29 35 1009.8 - 0.0
18/10:30pm 13.9 3.7 9.9 77 2.1 W 54 63 29 34 1009.4 - 0.0
18/10:00pm 13.7 4.0 10.3 80 1.8 W 52 61 28 33 1009.2 - 0.0
18/09:30pm 13.7 4.0 10.3 80 1.8 W 52 59 28 32 1008.9 - 0.0
18/09:00pm 14.1 3.3 9.9 76 2.2 W 57 67 31 36 1008.2 1008.0 0.0
18/08:30pm 14.3 2.3 10.9 80 1.8 W 65 74 35 40 1007.5 - 0.0
18/08:00pm 14.3 3.6 10.3 77 2.1 W 57 65 31 35 1007.6 - 0.0
18/07:30pm 13.6 3.6 10.8 83 1.5 W 54 63 29 34 1007.2 - 0.0
18/07:00pm 13.1 0.7 11.0 87 1.1 W 67 78 36 42 1006.6 - 0.0
18/06:30pm 13.5 -0.7 10.7 83 1.5 W 76 85 41 46 1005.8 - 0.0
18/06:00pm 14.8 1.0 10.6 76 2.2 W 74 87 40 47 1005.2 1005.0 0.0
18/05:52pm 15.0 2.8 10.4 74 2.4 W 65 83 35 45 1005.3 - 0.0
18/05:30pm 16.2 5.9 10.9 71 2.8 W 56 63 30 34 1005.4 - 0.0
18/05:00pm 15.7 3.0 10.0 69 3.0 WSW 67 76 36 41 1004.8 - 0.0
18/04:30pm 17.8 6.9 10.9 64 3.7 W 59 69 32 37 1004.8 - 0.0
18/04:00pm 18.4 8.6 11.5 64 3.8 W 54 61 29 33 1004.9 - 0.0
18/03:30pm 17.8 7.7 11.6 67 3.4 W 56 63 30 34 1004.7 - 0.0
18/03:00pm 17.6 6.8 11.4 67 3.4 W 59 70 32 38 1004.5 1004.3 0.0
18/02:30pm 16.3 5.6 11.7 74 2.5 W 59 70 32 38 1004.3 - 0.0
18/02:00pm 17.1 6.5 12.0 72 2.8 W 59 67 32 36 1004.3 - 0.0
18/01:30pm 18.7 10.2 13.3 71 3.1 W 50 57 27 31 1004.5 - 0.0
18/01:00pm 18.4 11.1 11.7 65 3.7 W 41 50 22 27 1004.8 - 0.0
18/12:48pm 19.3 13.8 12.3 64 3.9 W 33 44 18 24 1004.8 - 0.0
18/12:30pm 19.3 16.7 13.2 68 3.5 WNW 19 24 10 13 1004.7 - 0.0
18/12:00pm 18.9 15.8 13.5 71 3.1 NNW 22 26 12 14 1004.4 1004.2 0.0
18/11:30am 18.2 15.6 13.1 72 2.9 NNW 19 28 10 15 1004.4 - 0.0
18/11:00am 18.9 16.1 13.1 69 3.3 N 20 26 11 14 1004.5 - 0.0
18/10:30am 18.4 14.0 13.0 71 3.1 NNE 28 33 15 18 1004.4 - 0.0
18/10:00am 17.9 12.6 12.4 70 3.1 NNE 32 39 17 21 1004.7 - 0.0
18/09:30am 17.8 11.9 12.5 71 3.0 NNE 35 44 19 24 1004.7 - 0.0
18/09:00am 17.6 11.8 12.7 73 2.8 NNE 35 41 19 22 1005.0 1004.8 0.0
18/08:30am 16.6 10.9 11.9 74 2.6 NNE 33 39 18 21 1005.5 - 0.0
18/08:00am 16.8 10.7 11.9 73 2.7 NE 35 43 19 23 1005.4 - 0.0
18/07:30am 16.0 10.5 11.8 76 2.3 NE 32 37 17 20 1005.7 - 0.0
18/07:00am 15.8 10.0 11.4 75 2.4 NE 33 39 18 21 1005.7 - 0.0
18/06:30am 14.8 9.0 10.8 77 2.1 NE 32 37 17 20 1005.8 - 0.0
18/06:00am 14.0 8.7 10.0 77 2.1 NE 28 35 15 19 1006.1 1005.9 0.0
18/05:30am 13.7 8.7 9.4 75 2.2 NE 26 33 14 18 1006.1 - 0.0
18/05:00am 13.6 8.0 8.9 73 2.4 NNE 28 33 15 18 1006.2 - 0.0
18/04:30am 13.5 7.6 9.0 74 2.3 NNE 30 35 16 19 1006.3 - 0.0
18/04:00am 13.6 7.3 8.9 73 2.4 NNE 32 39 17 21 1006.3 - 0.0
18/03:30am 13.3 6.9 8.4 72 2.5 NNE 32 41 17 22 1006.5 - 0.0
18/03:00am 13.0 6.9 8.1 72 2.4 NNE 30 35 16 19 1006.6 1006.4 0.0
18/02:30am 13.0 7.2 7.9 71 2.5 N 28 33 15 18 1007.0 - 0.0
18/02:00am 12.6 6.8 7.9 73 2.3 NNE 28 33 15 18 1007.2 - 0.0
18/01:30am 12.5 7.4 7.8 73 2.3 NNE 24 28 13 15 1007.8 - 0.0
18/01:00am 11.9 7.6 6.8 71 2.4 N 19 22 10 12 1008.1 - 0.0
18/12:30am 11.4 7.4 6.5 72 2.3 N 17 20 9 11 1008.2 - 0.0
18/12:00am 12.9 11.0 7.4 69 2.7 N 7 11 4 6 1008.4 1008.2 0.0
 
Date/Time
EDT
Temp
°C
App
Temp
°C
Dew
Point
Rel
Hum
%
Delta-T
°C
Wind Press
QNH
hPa
Press
MSL
hPa
Rain
since 9 am
mm
Dir
 
Spd
km/h
Gust
km/h
Spd
kts
Gust
kts
17/11:30pm 12.2 9.7 6.7 69 2.6 N 9 11 5 6 1008.8 - 0.0
17/11:00pm 12.7 10.9 7.2 69 2.7 WNW 6 7 3 4 1009.0 - 0.0
17/10:30pm 12.4 10.0 7.1 70 2.6 W 9 13 5 7 1009.1 - 0.0
17/10:00pm 12.5 8.6 7.0 69 2.7 WSW 17 20 9 11 1009.0 - 0.0
17/09:30pm 12.6 8.1 6.0 64 3.1 WSW 19 22 10 12 1009.2 - 0.0
17/09:00pm 13.1 8.5 6.7 65 3.1 WSW 20 26 11 14 1009.1 1008.9 0.0
17/08:30pm 13.4 7.9 6.0 61 3.5 WSW 24 30 13 16 1009.0 - 0.0
17/08:00pm 14.3 8.6 6.9 61 3.6 WSW 26 32 14 17 1008.9 - 0.0
17/07:30pm 15.2 9.9 6.7 57 4.2 WSW 24 30 13 16 1008.7 - 0.0
17/07:00pm 15.8 10.2 7.3 57 4.2 WSW 26 30 14 16 1008.5 - 0.0
17/06:30pm 16.3 10.5 8.0 58 4.2 WSW 28 33 15 18 1008.3 - 0.0
17/06:00pm 16.5 9.7 7.7 56 4.5 W 33 39 18 21 1008.1 1007.9 0.0
17/05:30pm 17.0 9.9 7.9 55 4.6 WSW 35 43 19 23 1008.1 - 0.0
17/05:00pm 16.7 9.1 7.6 55 4.6 W 37 44 20 24 1008.2 - 0.0
17/04:30pm 17.3 10.2 8.2 55 4.7 W 35 43 19 23 1008.4 - 0.0
17/04:00pm 17.3 9.7 7.4 52 5.0 W 37 43 20 23 1008.4 - 0.0
17/03:30pm 17.4 9.0 7.5 52 5.0 W 41 44 22 24 1008.4 - 0.0
17/03:00pm 17.9 10.2 8.7 55 4.8 W 39 44 21 24 1008.4 1008.2 0.0
17/02:30pm 17.7 9.8 7.7 52 5.1 W 39 46 21 25 1008.4 - 0.0
17/02:00pm 17.4 9.3 7.2 51 5.1 W 39 48 21 26 1008.3 - 0.0
17/01:30pm 17.7 9.7 7.4 51 5.2 W 39 46 21 25 1008.4 - 0.0
17/01:00pm 17.4 9.4 7.5 52 5.0 W 39 46 21 25 1008.3 - 0.0
17/12:30pm 17.0 8.9 7.1 52 5.0 W 39 46 21 25 1008.3 - 0.0
17/12:00pm 16.8 9.0 8.2 57 4.4 W 39 44 21 24 1008.2 1008.0 0.0
17/11:30am 16.3 8.2 8.8 61 3.9 W 41 46 22 25 1008.0 - 0.0
17/11:00am 15.1 6.0 8.3 64 3.4 WSW 46 54 25 29 1007.6 - 0.0
17/10:30am 13.8 5.0 8.2 69 2.8 W 44 63 24 34 1007.2 - 0.0
17/10:00am 14.4 5.8 6.3 58 3.9 WSW 41 48 22 26 1007.2 - 0.0
17/09:30am 15.4 7.3 7.2 58 4.1 W 39 46 21 25 1006.9 - 0.0
17/09:00am 14.8 5.7 6.9 59 3.9 WSW 44 54 24 29 1006.6 1006.4 1.0
17/08:30am 14.2 4.0 7.0 62 3.5 WSW 50 56 27 30 1006.4 - 1.0
17/08:00am 13.9 3.8 7.4 65 3.2 WSW 50 59 27 32 1005.9 - 1.0
17/07:30am 13.4 2.8 6.7 64 3.2 WSW 52 61 28 33 1005.2 - 1.0
17/07:00am 13.2 2.7 7.2 67 2.9 WSW 52 59 28 32 1004.7 - 1.0
17/06:30am 12.6 1.7 7.3 70 2.6 WSW 54 63 29 34 1004.1 - 1.0
17/06:00am 12.4 1.8 8.3 76 2.0 W 54 65 29 35 1003.6 1003.4 1.0
17/05:30am 12.3 0.2 7.6 73 2.3 W 61 72 33 39 1003.0 - 1.0
17/05:00am 12.0 -0.1 7.7 75 2.1 W 61 70 33 38 1002.8 - 1.0
17/04:30am 11.0 -0.7 8.0 82 1.5 WSW 59 76 32 41 1002.5 - 1.0
17/04:21am 10.8 -3.5 7.3 79 1.7 WSW 72 91 39 49 1002.5 - 0.8
17/04:19am 11.2 -4.2 7.3 77 1.9 WSW 78 91 42 49 1002.0 - 0.2
17/04:17am 13.1 2.0 8.2 72 2.4 WSW 56 80 30 43 1002.2 - 0.2
17/04:00am 13.1 1.0 7.8 70 2.6 WSW 61 69 33 37 1002.2 - 0.2
17/03:30am 13.7 0.9 8.1 69 2.8 W 65 76 35 41 1001.7 - 0.2
17/03:00am 13.3 0.1 6.2 62 3.4 W 65 76 35 41 1001.3 1001.1 0.2
17/02:30am 13.3 0.9 8.0 70 2.6 W 63 76 34 41 1001.5 - 0.2
17/02:00am 13.5 0.8 8.4 71 2.6 WSW 65 74 35 40 1001.0 - 0.2
17/01:30am 13.7 -1.0 7.2 65 3.2 W 74 87 40 47 1000.4 - 0.2
17/01:00am 13.6 0.1 8.4 71 2.6 W 69 78 37 42 1000.7 - 0.2
17/12:30am 13.5 -1.2 8.8 73 2.4 W 76 89 41 48 1000.2 - 0.2
17/12:00am 13.7 -2.2 8.7 72 2.5 W 82 98 44 53 999.5 999.3 0.2
 
Date/Time
EDT
Temp
°C
App
Temp
°C
Dew
Point
Rel
Hum
%
Delta-T
°C
Wind Press
QNH
hPa
Press
MSL
hPa
Rain
since 9 am
mm
Dir
 
Spd
km/h
Gust
km/h
Spd
kts
Gust
kts
16/11:30pm 13.6 -3.8 8.0 69 2.8 W 89 107 48 58 998.8 - 0.2
16/11:00pm 13.7 -3.5 8.5 71 2.6 W 89 107 48 58 998.8 - 0.2
16/10:32pm 13.5 -3.9 7.9 69 2.8 W 89 107 48 58 998.4 - 0.2
16/10:30pm 13.5 -4.7 7.7 68 2.9 W 93 107 50 58 998.2 - 0.2
16/10:00pm 13.2 -5.0 9.3 77 2.0 W 95 115 51 62 998.3 - 0.2
16/09:43pm 14.4 -5.1 9.2 71 2.7 W 102 130 55 70 996.9 - 0.2

Other Formats:

Comma delimited format used in spreadsheet applications
http://www.bom.gov.au/fwo/IDT60801/IDT60801.94949.axf

JavaScript Object Notation format (JSON) in row-major order
http://www.bom.gov.au/fwo/IDT60801/IDT60801.94949.json